Time;durP1;ratioP1;P1;durP2;ratioP2;P2;SDS_P1;SDS_P2;PMS_P1;PMS_P2;Temp;Humidity;BMP_temperature;BMP_pressure;BME280_temperature;BME280_humidity;BME280_pressure;Samples;Min_cycle;Max_cycle;Signal;HPM_P1;HPM_P2
2022/10/20 00:01:54;;;;;;;1.80;1.73;;;17.50;50.20;;;;;;5097460;28;20471;-70
2022/10/20 00:04:19;;;;;;;1.43;1.33;;;17.40;51.20;;;;;;5090887;28;20198;-71
2022/10/20 00:06:45;;;;;;;1.40;1.33;;;17.50;50.80;;;;;;5087593;28;20668;-70
2022/10/20 00:09:11;;;;;;;1.50;1.33;;;17.30;51.80;;;;;;5091318;28;20220;-70
2022/10/20 00:11:36;;;;;;;1.83;1.53;;;17.50;51.00;;;;;;5091385;28;20457;-70
2022/10/20 00:14:02;;;;;;;1.50;1.40;;;17.60;50.40;;;;;;5091506;28;20221;-71
2022/10/20 00:16:30;;;;;;;1.50;1.50;;;17.90;49.10;;;;;;5090564;28;20209;-70
2022/10/20 00:18:57;;;;;;;1.47;1.33;;;17.60;50.20;;;;;;5091094;28;20409;-71
2022/10/20 00:21:26;;;;;;;1.60;1.40;;;17.50;51.30;;;;;;5089627;28;20773;-70
2022/10/20 00:23:52;;;;;;;1.73;1.70;;;17.90;49.70;;;;;;5091315;28;20439;-70
2022/10/20 00:26:20;;;;;;;1.43;1.27;;;17.90;48.70;;;;;;5091536;28;20408;-71
2022/10/20 00:28:46;;;;;;;1.83;1.50;;;17.60;50.20;;;;;;5090469;28;20935;-70
2022/10/20 00:31:12;;;;;;;2.03;1.73;;;17.40;51.30;;;;;;5089128;28;20473;-70
2022/10/20 00:33:38;;;;;;;2.10;1.60;;;17.50;50.70;;;;;;5091044;28;20427;-70
2022/10/20 00:36:06;;;;;;;1.30;1.23;;;17.50;50.90;;;;;;5091063;28;20405;-70
2022/10/20 00:38:33;;;;;;;1.70;1.70;;;17.20;52.40;;;;;;5090507;28;20197;-70
2022/10/20 00:40:59;;;;;;;1.93;1.83;;;17.10;52.70;;;;;;5090974;28;20537;-71
2022/10/20 00:43:47;;;;;;;1.70;1.50;;;17.30;52.20;;;;;;5091102;28;20593;-70
2022/10/20 00:46:18;;;;;;;2.03;1.80;;;17.40;51.30;;;;;;5091274;28;20329;-70
2022/10/20 00:48:48;;;;;;;2.27;1.83;;;17.00;53.50;;;;;;5093585;28;20562;-70
2022/10/20 00:51:18;;;;;;;2.40;1.90;;;17.30;52.10;;;;;;5079828;28;20518;-71
2022/10/20 00:53:46;;;;;;;2.33;1.50;;;17.50;51.30;;;;;;5091041;28;20424;-70
2022/10/20 00:56:13;;;;;;;1.60;1.50;;;17.50;51.00;;;;;;5091144;28;20401;-70
2022/10/20 00:58:40;;;;;;;1.50;1.30;;;17.90;49.40;;;;;;5087357;28;20959;-70
2022/10/20 01:01:05;;;;;;;2.13;1.73;;;17.60;50.30;;;;;;5093472;28;20433;-70
2022/10/20 01:04:04;;;;;;;1.50;1.47;;;17.60;50.40;;;;;;5092996;28;20481;-71
2022/10/20 01:06:29;;;;;;;1.80;1.70;;;17.00;52.70;;;;;;5071902;28;20318;-70
2022/10/20 01:08:56;;;;;;;1.40;1.40;;;17.10;53.60;;;;;;5067879;28;20959;-70
2022/10/20 01:11:22;;;;;;;2.07;1.80;;;17.00;53.50;;;;;;5050520;28;20220;-70
2022/10/20 01:13:59;;;;;;;6.27;2.30;;;17.20;53.20;;;;;;5066084;28;20532;-71
2022/10/20 01:16:52;;;;;;;2.90;1.87;;;17.40;51.90;;;;;;5071860;28;20180;-70
2022/10/20 01:19:33;;;;;;;1.30;1.30;;;17.30;51.70;;;;;;5069567;28;20473;-71
2022/10/20 01:22:23;;;;;;;1.30;1.30;;;17.30;51.70;;;;;;5033666;28;20431;-70
2022/10/20 01:24:54;;;;;;;2.27;1.60;;;17.10;52.50;;;;;;5045082;28;20958;-70
2022/10/20 01:27:42;;;;;;;1.87;1.67;;;17.40;51.90;;;;;;5050405;28;20935;-70
2022/10/20 01:30:12;;;;;;;1.70;1.60;;;17.60;50.40;;;;;;5049825;28;20440;-71
2022/10/20 01:33:12;;;;;;;1.80;1.60;;;17.50;50.60;;;;;;5056176;28;20465;-70
2022/10/20 01:36:05;;;;;;;4.13;2.07;;;17.50;50.70;;;;;;5021425;28;20955;-71
2022/10/20 01:39:02;;;;;;;1.33;1.33;;;17.40;51.70;;;;;;5051834;28;20430;-70
2022/10/20 01:41:38;;;;;;;1.70;1.60;;;17.20;51.80;;;;;;5044448;28;20438;-70
2022/10/20 01:44:07;;;;;;;2.20;1.70;;;17.30;51.90;;;;;;5088992;28;20566;-71
2022/10/20 01:46:34;;;;;;;2.23;1.70;;;17.10;52.50;;;;;;5093651;28;20435;-70
2022/10/20 01:49:02;;;;;;;1.70;1.50;;;17.20;51.90;;;;;;5093922;28;20400;-71
2022/10/20 01:51:28;;;;;;;1.70;1.40;;;17.50;51.40;;;;;;5091766;28;20996;-71
2022/10/20 01:53:53;;;;;;;1.43;1.33;;;17.70;50.40;;;;;;5095721;28;20456;-70
2022/10/20 01:56:49;;;;;;;2.60;2.17;;;17.40;50.70;;;;;;5094560;28;20515;-70
2022/10/20 01:59:39;;;;;;;1.50;1.50;;;17.30;51.60;;;;;;5093803;28;20188;-70
2022/10/20 02:02:16;;;;;;;1.43;1.33;;;17.20;51.70;;;;;;5092050;28;20436;-72
2022/10/20 02:05:11;;;;;;;1.60;1.57;;;17.30;51.70;;;;;;5090194;28;20429;-72
2022/10/20 02:07:38;;;;;;;1.30;1.30;;;16.90;53.90;;;;;;5076561;28;20436;-71
2022/10/20 02:10:25;;;;;;;1.70;1.50;;;17.00;53.40;;;;;;5097216;28;20438;-73
2022/10/20 02:12:55;;;;;;;1.43;1.30;;;17.10;52.40;;;;;;5100032;28;20560;-71
2022/10/20 02:15:24;;;;;;;1.60;1.53;;;17.00;53.50;;;;;;5084266;28;20433;-72
2022/10/20 02:17:56;;;;;;;2.63;1.83;;;16.90;54.80;;;;;;5092779;28;20523;-72
2022/10/20 02:20:22;;;;;;;2.03;1.60;;;16.90;55.00;;;;;;5092247;28;20412;-70
2022/10/20 02:22:48;;;;;;;1.80;1.53;;;17.00;53.50;;;;;;5092709;28;20473;-71
2022/10/20 02:25:14;;;;;;;1.30;1.27;;;17.10;52.60;;;;;;5093238;28;20407;-70
2022/10/20 02:27:45;;;;;;;2.40;2.27;;;17.00;53.30;;;;;;5097575;28;20975;-70
2022/10/20 02:30:15;;;;;;;1.40;1.33;;;17.10;52.90;;;;;;5091952;28;20270;-70
2022/10/20 02:32:42;;;;;;;1.50;1.40;;;16.80;54.90;;;;;;5083568;28;20901;-70
2022/10/20 02:35:14;;;;;;;1.57;1.50;;;16.90;54.50;;;;;;5092185;28;20491;-70
2022/10/20 02:37:40;;;;;;;3.20;1.63;;;16.90;54.10;;;;;;5092965;28;20452;-70
2022/10/20 02:40:06;;;;;;;2.43;1.97;;;17.00;52.90;;;;;;5090070;28;20463;-71
2022/10/20 02:42:32;;;;;;;3.00;1.70;;;17.10;52.80;;;;;;5092705;28;20208;-70
2022/10/20 02:44:57;;;;;;;1.90;1.60;;;17.20;52.10;;;;;;5091960;28;20923;-70
2022/10/20 02:47:23;;;;;;;1.87;1.50;;;16.80;54.20;;;;;;5092451;28;20183;-70
2022/10/20 02:49:48;;;;;;;1.50;1.40;;;16.50;55.60;;;;;;5087508;28;20240;-71
2022/10/20 02:52:14;;;;;;;3.40;1.70;;;16.80;54.90;;;;;;5083452;28;20232;-70
2022/10/20 02:54:40;;;;;;;1.73;1.47;;;16.70;54.80;;;;;;5092598;28;20183;-70
2022/10/20 02:57:06;;;;;;;2.33;1.60;;;16.70;55.50;;;;;;5092624;28;20171;-70
2022/10/20 02:59:32;;;;;;;2.00;1.40;;;16.50;56.50;;;;;;5087644;28;20233;-70
2022/10/20 03:01:57;;;;;;;2.37;1.60;;;16.40;57.20;;;;;;5087161;28;20178;-70
2022/10/20 03:04:23;;;;;;;2.03;1.70;;;16.40;56.40;;;;;;5082349;28;20455;-70
2022/10/20 03:06:48;;;;;;;1.40;1.40;;;16.60;56.30;;;;;;5090431;28;20192;-70
2022/10/20 03:09:14;;;;;;;1.87;1.50;;;16.50;56.10;;;;;;5092049;28;20187;-71
2022/10/20 03:11:40;;;;;;;2.90;1.70;;;16.40;57.10;;;;;;5082596;28;20206;-70
2022/10/20 03:14:05;;;;;;;1.37;1.23;;;16.60;56.40;;;;;;5087663;28;20851;-71
2022/10/20 03:16:31;;;;;;;1.57;1.57;;;16.80;54.90;;;;;;5085634;28;20289;-70
2022/10/20 03:18:56;;;;;;;1.70;1.60;;;17.30;52.90;;;;;;5098763;28;20175;-70
2022/10/20 03:21:22;;;;;;;1.93;1.70;;;17.20;52.80;;;;;;5087586;28;20192;-71
2022/10/20 03:23:48;;;;;;;1.60;1.47;;;17.10;53.20;;;;;;5087974;28;20695;-70
2022/10/20 03:26:13;;;;;;;1.40;1.40;;;16.80;54.20;;;;;;5089505;28;20258;-70
2022/10/20 03:28:39;;;;;;;1.70;1.70;;;16.80;54.90;;;;;;5091882;28;20169;-70
2022/10/20 03:31:05;;;;;;;2.77;1.70;;;16.70;54.80;;;;;;5090859;28;20666;-70
2022/10/20 03:33:31;;;;;;;2.03;1.70;;;16.80;54.90;;;;;;5084106;28;20842;-71
2022/10/20 03:35:56;;;;;;;1.80;1.60;;;16.80;54.90;;;;;;5091101;28;20552;-70
2022/10/20 03:38:22;;;;;;;1.87;1.80;;;17.10;53.60;;;;;;5091903;28;20258;-70
2022/10/20 03:40:48;;;;;;;7.90;2.50;;;17.20;52.10;;;;;;5091836;28;20178;-70
2022/10/20 03:43:17;;;;;;;2.30;2.10;;;17.10;52.70;;;;;;5084577;28;20995;-70
2022/10/20 03:45:43;;;;;;;2.30;1.90;;;17.10;52.90;;;;;;5085634;28;20167;-70
2022/10/20 03:48:10;;;;;;;1.60;1.50;;;17.20;53.00;;;;;;5089792;28;20781;-70
2022/10/20 03:50:42;;;;;;;5.23;2.10;;;17.40;51.50;;;;;;5091671;28;20418;-70
2022/10/20 03:53:11;;;;;;;1.47;1.30;;;17.40;51.60;;;;;;5089652;28;20917;-71
2022/10/20 03:55:37;;;;;;;2.90;1.97;;;17.30;51.70;;;;;;5097832;28;20424;-70
2022/10/20 03:58:02;;;;;;;2.83;2.10;;;17.20;51.60;;;;;;5088271;28;20967;-71
2022/10/20 04:00:28;;;;;;;1.33;1.30;;;17.20;51.90;;;;;;5082280;28;20500;-72
2022/10/20 04:02:54;;;;;;;1.97;1.53;;;17.00;53.40;;;;;;5091285;28;20190;-72
2022/10/20 04:05:19;;;;;;;1.47;1.43;;;16.90;53.20;;;;;;5081385;28;20605;-70
2022/10/20 04:07:45;;;;;;;1.30;1.20;;;17.10;52.20;;;;;;5090640;28;20220;-72
2022/10/20 04:10:12;;;;;;;2.50;2.00;;;16.90;53.30;;;;;;5081502;28;20462;-71
2022/10/20 04:12:38;;;;;;;2.67;1.50;;;16.70;55.60;;;;;;5098107;28;20460;-72
2022/10/20 04:15:05;;;;;;;1.70;1.40;;;17.30;52.00;;;;;;5096660;28;20456;-75
2022/10/20 04:17:30;;;;;;;1.50;1.40;;;17.40;50.60;;;;;;5088908;28;20170;-75
2022/10/20 04:19:56;;;;;;;1.73;1.50;;;17.20;51.60;;;;;;5075676;28;20405;-75
2022/10/20 04:22:21;;;;;;;1.50;1.40;;;17.10;52.60;;;;;;5079438;28;20205;-75
2022/10/20 04:24:47;;;;;;;1.83;1.70;;;17.00;53.00;;;;;;5090597;28;20676;-75
2022/10/20 04:27:12;;;;;;;1.43;1.33;;;17.10;52.40;;;;;;5094762;28;20182;-74
2022/10/20 04:29:38;;;;;;;6.40;2.40;;;17.10;52.10;;;;;;5090515;28;20556;-75
2022/10/20 04:32:04;;;;;;;2.23;1.87;;;16.90;52.60;;;;;;5091086;28;20214;-75
2022/10/20 04:34:29;;;;;;;8.70;1.53;;;16.60;54.70;;;;;;5095253;28;20179;-74
2022/10/20 04:36:55;;;;;;;1.43;1.40;;;16.50;55.80;;;;;;5088867;28;20183;-75
2022/10/20 04:39:21;;;;;;;1.30;1.30;;;16.90;53.90;;;;;;5095659;28;20192;-74
2022/10/20 04:41:46;;;;;;;2.13;1.40;;;17.10;52.80;;;;;;5098770;28;20182;-72
2022/10/20 04:44:12;;;;;;;2.90;1.60;;;16.80;53.70;;;;;;5097327;28;20206;-75
2022/10/20 04:46:38;;;;;;;1.57;1.57;;;16.80;54.70;;;;;;5094185;28;20599;-75
2022/10/20 04:49:04;;;;;;;2.43;2.10;;;16.80;54.00;;;;;;5097370;28;20440;-74
2022/10/20 04:51:29;;;;;;;8.33;2.03;;;16.90;53.40;;;;;;5094886;28;20204;-75
2022/10/20 04:53:55;;;;;;;1.77;1.63;;;17.20;51.90;;;;;;5098427;28;20196;-75
2022/10/20 04:56:22;;;;;;;1.50;1.43;;;17.50;50.70;;;;;;5095265;28;20239;-73
2022/10/20 04:58:53;;;;;;;2.13;1.60;;;17.40;51.40;;;;;;5095779;28;20174;-70
2022/10/20 05:01:20;;;;;;;1.30;1.27;;;17.40;50.80;;;;;;5100076;28;20473;-74
2022/10/20 05:03:46;;;;;;;2.00;1.67;;;17.10;52.10;;;;;;5095404;28;20460;-72
2022/10/20 05:06:14;;;;;;;1.63;1.53;;;17.00;52.00;;;;;;5093073;28;20418;-74
2022/10/20 05:08:42;;;;;;;3.03;1.63;;;16.90;52.50;;;;;;5092436;28;20288;-74
2022/10/20 05:11:08;;;;;;;1.97;1.50;;;16.70;53.50;;;;;;5101530;28;20472;-76
2022/10/20 05:13:34;;;;;;;2.33;2.03;;;16.80;53.00;;;;;;5101635;28;20482;-73
2022/10/20 05:15:59;;;;;;;4.33;2.30;;;16.50;54.60;;;;;;5094900;28;20410;-73
2022/10/20 05:18:25;;;;;;;1.30;1.27;;;16.80;54.10;;;;;;5096712;28;20199;-75
2022/10/20 05:20:51;;;;;;;1.60;1.47;;;16.50;54.60;;;;;;5102957;28;20199;-74
2022/10/20 05:23:16;;;;;;;1.67;1.53;;;16.70;54.80;;;;;;5098071;28;20202;-75
2022/10/20 05:25:42;;;;;;;2.53;1.60;;;16.60;54.70;;;;;;5099552;28;20218;-76
2022/10/20 05:28:08;;;;;;;1.80;1.60;;;16.50;54.70;;;;;;5097247;28;20220;-73
2022/10/20 05:30:34;;;;;;;1.70;1.67;;;16.80;53.90;;;;;;5090282;28;20181;-74
2022/10/20 05:33:00;;;;;;;1.87;1.50;;;17.10;53.30;;;;;;5089145;28;20216;-73
2022/10/20 05:35:27;;;;;;;1.50;1.50;;;17.00;52.30;;;;;;5085711;28;21066;-73
2022/10/20 05:37:53;;;;;;;1.60;1.50;;;17.00;52.70;;;;;;5094417;28;20208;-73
2022/10/20 05:40:18;;;;;;;1.50;1.40;;;17.20;51.20;;;;;;5094160;28;20417;-72
2022/10/20 05:42:44;;;;;;;1.30;1.30;;;17.40;50.60;;;;;;5093876;28;20199;-72
2022/10/20 05:45:10;;;;;;;5.13;2.67;;;17.40;50.60;;;;;;5092586;28;20188;-73
2022/10/20 05:47:35;;;;;;;1.40;1.40;;;17.40;50.70;;;;;;5095817;28;20707;-72
2022/10/20 05:50:01;;;;;;;1.53;1.33;;;17.40;50.40;;;;;;5093212;28;20179;-73
2022/10/20 05:52:27;;;;;;;3.50;2.10;;;17.60;49.00;;;;;;5089250;28;20208;-73
2022/10/20 05:54:52;;;;;;;1.80;1.73;;;17.20;50.20;;;;;;5092747;28;20188;-69
2022/10/20 05:57:18;;;;;;;1.43;1.43;;;17.30;50.40;;;;;;5093203;28;20183;-73
2022/10/20 05:59:44;;;;;;;1.50;1.40;;;17.40;50.00;;;;;;5109123;28;20301;-74
2022/10/20 06:02:10;;;;;;;1.60;1.50;;;17.30;50.30;;;;;;5085534;28;20262;-73
2022/10/20 06:04:36;;;;;;;1.40;1.33;;;17.00;51.80;;;;;;5092355;28;20427;-72
2022/10/20 06:07:04;;;;;;;1.57;1.53;;;16.90;52.30;;;;;;5094532;28;20773;-72
2022/10/20 06:09:30;;;;;;;1.63;1.30;;;16.70;53.70;;;;;;5094236;28;20178;-74
2022/10/20 06:11:57;;;;;;;1.40;1.30;;;16.80;53.20;;;;;;5082471;28;20972;-73
2022/10/20 06:14:24;;;;;;;1.50;1.40;;;17.00;52.70;;;;;;5091342;28;20448;-73
2022/10/20 06:16:52;;;;;;;1.47;1.33;;;16.90;52.50;;;;;;5093655;28;20419;-72
2022/10/20 06:19:18;;;;;;;1.60;1.40;;;16.70;54.30;;;;;;5092601;28;20433;-73
2022/10/20 06:21:44;;;;;;;1.57;1.50;;;16.90;52.80;;;;;;5094194;28;20415;-70
2022/10/20 06:24:10;;;;;;;3.50;2.13;;;17.00;52.20;;;;;;5093465;28;20932;-71
2022/10/20 06:26:36;;;;;;;1.47;1.47;;;17.20;51.70;;;;;;5087938;28;20269;-73
2022/10/20 06:29:04;;;;;;;4.90;1.93;;;17.30;51.50;;;;;;5091786;28;20446;-73
2022/10/20 06:31:33;;;;;;;1.30;1.10;;;17.00;52.00;;;;;;5094384;28;20475;-71
2022/10/20 06:33:59;;;;;;;1.93;1.60;;;17.10;52.20;;;;;;5108156;28;20456;-75
2022/10/20 06:36:26;;;;;;;1.40;1.40;;;17.10;52.10;;;;;;5098337;28;20436;-72
2022/10/20 06:38:53;;;;;;;1.53;1.30;;;17.00;51.90;;;;;;5092876;28;20454;-70
2022/10/20 06:41:19;;;;;;;1.60;1.50;;;17.00;52.40;;;;;;5098479;28;20441;-71
2022/10/20 06:43:45;;;;;;;1.80;1.43;;;16.90;52.20;;;;;;5101481;28;20546;-70
2022/10/20 06:46:13;;;;;;;1.73;1.40;;;16.90;52.70;;;;;;5097030;28;20191;-74
2022/10/20 06:48:39;;;;;;;2.47;1.80;;;16.80;53.10;;;;;;5090159;28;20223;-71
2022/10/20 06:51:08;;;;;;;3.57;1.50;;;16.90;53.20;;;;;;5089966;28;20862;-74
2022/10/20 06:53:35;;;;;;;1.80;1.53;;;17.00;52.00;;;;;;5093494;28;20491;-72
2022/10/20 06:56:10;;;;;;;2.33;1.93;;;17.40;50.20;;;;;;5089790;28;20864;-73
2022/10/20 06:58:37;;;;;;;1.73;1.67;;;17.30;50.00;;;;;;5089322;28;20428;-72
2022/10/20 07:01:06;;;;;;;1.47;1.43;;;17.50;49.70;;;;;;5087010;28;20980;-72
2022/10/20 07:03:33;;;;;;;1.40;1.20;;;17.40;49.50;;;;;;5088673;28;20461;-73
2022/10/20 07:05:59;;;;;;;1.60;1.50;;;17.70;48.70;;;;;;5093227;28;20427;-73
2022/10/20 07:08:29;;;;;;;1.40;1.40;;;17.80;48.00;;;;;;5094573;28;20846;-72
2022/10/20 07:11:08;;;;;;;1.30;1.20;;;17.70;48.60;;;;;;5086007;28;20219;-73
2022/10/20 07:13:35;;;;;;;1.50;1.37;;;17.80;47.70;;;;;;5088805;28;20517;-73
2022/10/20 07:16:02;;;;;;;1.37;1.33;;;17.60;47.80;;;;;;5085813;28;20500;-73
2022/10/20 07:18:28;;;;;;;1.50;1.40;;;16.90;47.80;;;;;;5099861;28;20409;-72
2022/10/20 07:20:59;;;;;;;1.70;1.57;;;16.90;51.30;;;;;;5089784;28;20540;-72
2022/10/20 07:23:26;;;;;;;2.53;1.80;;;17.20;50.50;;;;;;5079863;28;20528;-72
2022/10/20 07:26:07;;;;;;;1.80;1.40;;;17.10;50.70;;;;;;5094660;28;20491;-72
2022/10/20 07:28:34;;;;;;;1.93;1.40;;;17.30;50.00;;;;;;5094649;28;20500;-72
2022/10/20 07:31:09;;;;;;;2.07;1.83;;;17.40;49.50;;;;;;5090411;28;20472;-73
2022/10/20 07:33:35;;;;;;;1.40;1.20;;;17.70;48.20;;;;;;5071495;28;20421;-73
2022/10/20 07:36:01;;;;;;;1.30;1.30;;;17.70;47.80;;;;;;5078739;28;20446;-72
2022/10/20 07:38:26;;;;;;;1.50;1.30;;;17.70;48.30;;;;;;5075666;28;20979;-72
2022/10/20 07:40:52;;;;;;;1.73;1.50;;;17.40;48.60;;;;;;5090355;28;20424;-72
2022/10/20 07:43:18;;;;;;;1.60;1.30;;;17.40;50.10;;;;;;5091887;28;20273;-72
2022/10/20 07:45:44;;;;;;;1.53;1.50;;;17.70;48.10;;;;;;5090781;28;20216;-72
2022/10/20 07:48:10;;;;;;;1.60;1.60;;;17.70;48.40;;;;;;5089218;28;20440;-72
2022/10/20 07:50:36;;;;;;;1.43;1.37;;;17.80;48.00;;;;;;5084344;28;20427;-72
2022/10/20 07:53:03;;;;;;;1.80;1.67;;;17.50;50.20;;;;;;5091728;28;20194;-72
2022/10/20 07:55:28;;;;;;;2.00;1.40;;;17.50;49.30;;;;;;5081673;28;20429;-72
2022/10/20 07:57:54;;;;;;;1.97;1.50;;;17.50;49.50;;;;;;5091745;28;20409;-72
2022/10/20 08:00:20;;;;;;;1.97;1.50;;;17.50;50.10;;;;;;5091374;28;20211;-71
2022/10/20 08:02:45;;;;;;;1.60;1.40;;;17.70;49.60;;;;;;5091502;28;20194;-72
2022/10/20 08:05:12;;;;;;;1.30;1.30;;;17.70;49.10;;;;;;5089409;28;20179;-72
2022/10/20 08:07:37;;;;;;;1.83;1.60;;;17.90;48.40;;;;;;5091416;28;20183;-73
2022/10/20 08:10:04;;;;;;;1.90;1.70;;;17.70;48.90;;;;;;5091711;28;20424;-72
2022/10/20 08:12:30;;;;;;;1.60;1.47;;;17.50;49.20;;;;;;5091114;28;20726;-72
2022/10/20 08:14:56;;;;;;;1.70;1.53;;;17.60;49.30;;;;;;5089363;28;20462;-73
2022/10/20 08:17:21;;;;;;;1.50;1.40;;;17.80;49.60;;;;;;5091325;28;20195;-72
2022/10/20 08:19:47;;;;;;;2.53;1.50;;;18.10;48.20;;;;;;5087343;28;20176;-72
2022/10/20 08:22:13;;;;;;;2.83;1.67;;;18.30;47.30;;;;;;5080078;28;20634;-72
2022/10/20 08:24:38;;;;;;;1.70;1.63;;;18.50;46.70;;;;;;5091341;28;20183;-72
2022/10/20 08:27:04;;;;;;;1.47;1.47;;;18.10;47.80;;;;;;5089888;28;20444;-73
2022/10/20 08:29:30;;;;;;;1.50;1.50;;;17.90;48.70;;;;;;5091309;28;20265;-73
2022/10/20 08:31:55;;;;;;;3.00;1.80;;;18.20;47.80;;;;;;5091208;28;20200;-73
2022/10/20 08:34:21;;;;;;;2.63;2.20;;;18.20;48.10;;;;;;5091259;28;20272;-72
2022/10/20 08:36:47;;;;;;;1.67;1.37;;;17.90;49.00;;;;;;5088137;28;20175;-72
2022/10/20 08:39:12;;;;;;;1.37;1.27;;;18.10;49.40;;;;;;5082075;28;20671;-73
2022/10/20 08:41:43;;;;;;;1.60;1.57;;;18.00;48.50;;;;;;5090865;28;20185;-73
2022/10/20 08:44:26;;;;;;;1.67;1.60;;;18.00;48.80;;;;;;5088598;28;20202;-73
2022/10/20 08:46:52;;;;;;;1.30;1.23;;;18.10;48.30;;;;;;5086378;28;20458;-73
2022/10/20 08:49:26;;;;;;;1.80;1.77;;;18.40;48.00;;;;;;5091278;28;20422;-74
2022/10/20 08:51:52;;;;;;;2.00;1.60;;;18.80;45.70;;;;;;5090762;28;20441;-74
2022/10/20 08:54:17;;;;;;;1.73;1.63;;;19.00;45.30;;;;;;5091017;28;20435;-73
2022/10/20 08:56:44;;;;;;;1.97;1.70;;;19.50;44.10;;;;;;5089154;28;20169;-73
2022/10/20 08:59:28;;;;;;;1.73;1.50;;;19.40;43.90;;;;;;5091196;28;20415;-74
2022/10/20 09:01:55;;;;;;;1.40;1.23;;;19.60;43.10;;;;;;5090748;28;20415;-73
2022/10/20 09:04:30;;;;;;;2.00;1.73;;;19.80;42.60;;;;;;5090940;28;20818;-71
2022/10/20 09:07:00;;;;;;;1.77;1.50;;;19.90;42.20;;;;;;5089256;28;20961;-73
2022/10/20 09:09:29;;;;;;;2.03;1.57;;;19.80;43.10;;;;;;5090943;28;20419;-73
2022/10/20 09:12:03;;;;;;;1.90;1.70;;;20.10;41.80;;;;;;5090738;28;20555;-73
2022/10/20 09:14:32;;;;;;;1.57;1.50;;;19.70;42.60;;;;;;5090557;28;20452;-73
2022/10/20 09:16:58;;;;;;;1.60;1.37;;;19.50;43.70;;;;;;5089724;28;20441;-72
2022/10/20 09:19:23;;;;;;;1.70;1.50;;;19.60;42.60;;;;;;5088572;28;20433;-73
2022/10/20 09:21:53;;;;;;;1.83;1.60;;;20.00;42.50;;;;;;5088954;28;20526;-73
2022/10/20 09:24:21;;;;;;;2.47;1.53;;;20.40;41.00;;;;;;5094399;28;20190;-73
2022/10/20 09:26:49;;;;;;;1.80;1.70;;;20.50;40.50;;;;;;5094502;28;20495;-73
2022/10/20 09:29:17;;;;;;;1.40;1.40;;;20.40;41.50;;;;;;5093708;28;20429;-73
2022/10/20 09:31:44;;;;;;;1.50;1.40;;;20.40;41.50;;;;;;5092983;28;20492;-73
2022/10/20 09:34:22;;;;;;;3.20;2.03;;;20.70;40.60;;;;;;5094219;28;20490;-72
2022/10/20 09:36:49;;;;;;;2.20;1.87;;;20.60;40.40;;;;;;5094338;28;20423;-73
2022/10/20 09:39:26;;;;;;;2.10;1.70;;;20.80;40.70;;;;;;5078550;22;20497;-76
2022/10/20 09:42:01;;;;;;;3.70;1.63;;;20.70;40.60;;;;;;5045523;28;20501;-77
2022/10/20 09:44:26;;;;;;;2.73;1.90;;;20.90;39.20;;;;;;5044924;28;20505;-79
2022/10/20 09:46:53;;;;;;;1.60;1.50;;;21.20;39.00;;;;;;5053628;28;20492;-75
2022/10/20 09:49:34;;;;;;;4.40;1.60;;;21.50;38.40;;;;;;5053487;28;20428;-76
2022/10/20 09:52:01;;;;;;;1.90;1.80;;;21.70;37.60;;;;;;5039749;28;20472;-76
2022/10/20 09:54:27;;;;;;;1.57;1.53;;;21.70;38.30;;;;;;5033149;28;20417;-76
2022/10/20 09:57:03;;;;;;;2.33;1.77;;;21.50;39.20;;;;;;5032309;28;20447;-76
2022/10/20 09:59:35;;;;;;;13.40;2.27;;;21.60;38.50;;;;;;5033246;28;20456;-79
2022/10/20 10:02:21;;;;;;;1.80;1.70;;;21.80;37.60;;;;;;5033675;28;20416;-76
2022/10/20 10:04:49;;;;;;;1.80;1.57;;;21.50;38.60;;;;;;5033302;28;20428;-76
2022/10/20 10:07:31;;;;;;;1.63;1.60;;;21.60;38.30;;;;;;5032105;28;21020;-77
2022/10/20 10:09:58;;;;;;;1.63;1.53;;;21.80;38.00;;;;;;5028199;28;20457;-76
2022/10/20 10:12:26;;;;;;;2.50;1.63;;;21.70;38.80;;;;;;5032974;28;20527;-77
2022/10/20 10:15:00;;;;;;;1.77;1.77;;;21.50;38.90;;;;;;5033219;28;20450;-76
2022/10/20 10:17:32;;;;;;;1.63;1.60;;;22.00;36.90;;;;;;5033174;28;20492;-76
2022/10/20 10:19:59;;;;;;;1.50;1.50;;;22.00;37.00;;;;;;5031530;28;20456;-76
2022/10/20 10:22:25;;;;;;;3.83;2.00;;;22.20;37.20;;;;;;5031635;28;20522;-76
2022/10/20 10:24:54;;;;;;;1.97;1.60;;;22.20;36.60;;;;;;5032649;28;20506;-75
2022/10/20 10:27:27;;;;;;;2.07;1.70;;;22.10;37.10;;;;;;5032955;28;20641;-76
2022/10/20 10:29:55;;;;;;;2.20;1.80;;;21.90;37.70;;;;;;5030695;28;20549;-76
2022/10/20 10:32:28;;;;;;;2.30;1.83;;;21.50;37.70;;;;;;5032687;28;20912;-76
2022/10/20 10:35:11;;;;;;;1.87;1.60;;;21.40;38.00;;;;;;5032801;28;20771;-76
2022/10/20 10:37:40;;;;;;;2.50;2.00;;;21.80;39.30;;;;;;5032775;28;20407;-76
2022/10/20 10:40:17;;;;;;;1.50;1.33;;;22.30;36.70;;;;;;5030905;28;20446;-78
2022/10/20 10:43:08;;;;;;;1.80;1.80;;;22.50;36.20;;;;;;5032225;28;20855;-76
2022/10/20 10:45:44;;;;;;;1.80;1.77;;;22.60;36.50;;;;;;5031248;28;21140;-78
2022/10/20 10:48:32;;;;;;;1.43;1.40;;;22.60;36.20;;;;;;5032265;28;20520;-76
2022/10/20 10:51:00;;;;;;;2.27;1.97;;;22.10;38.60;;;;;;5032339;28;20590;-76
2022/10/20 10:53:49;;;;;;;2.13;1.70;;;22.00;38.10;;;;;;5032271;28;20496;-76
2022/10/20 10:56:20;;;;;;;1.83;1.50;;;22.00;38.20;;;;;;5029952;28;20447;-76
2022/10/20 10:59:04;;;;;;;1.30;1.30;;;21.90;39.20;;;;;;5032468;28;20797;-75
2022/10/20 11:01:38;;;;;;;2.10;1.87;;;22.10;37.80;;;;;;5032093;28;20435;-76
2022/10/20 11:04:25;;;;;;;1.97;1.77;;;21.90;38.50;;;;;;5031022;28;20449;-76
2022/10/20 11:07:12;;;;;;;1.57;1.53;;;21.60;39.10;;;;;;5031741;28;20937;-78
2022/10/20 11:09:53;;;;;;;1.67;1.63;;;21.80;38.80;;;;;;5025651;28;20435;-75
2022/10/20 11:12:37;;;;;;;1.40;1.40;;;21.80;38.40;;;;;;5032383;28;20481;-76
2022/10/20 11:15:14;;;;;;;2.00;1.57;;;22.00;37.90;;;;;;5031419;28;20971;-76
2022/10/20 11:18:06;;;;;;;2.03;1.50;;;22.10;37.60;;;;;;5032045;28;20943;-76
2022/10/20 11:20:50;;;;;;;2.30;1.70;;;22.10;38.60;;;;;;5032291;28;20417;-76
2022/10/20 11:23:42;;;;;;;3.43;1.57;;;22.40;37.70;;;;;;5032035;28;20414;-76
2022/10/20 11:26:20;;;;;;;2.60;1.90;;;22.50;36.80;;;;;;5029142;28;20445;-76
2022/10/20 11:28:54;;;;;;;1.60;1.50;;;22.60;38.40;;;;;;5028584;28;20460;-76
2022/10/20 11:31:32;;;;;;;9.33;1.80;;;22.80;38.10;;;;;;5030950;28;20456;-77
2022/10/20 11:34:17;;;;;;;3.50;2.00;;;23.10;36.70;;;;;;5029093;28;20765;-76
2022/10/20 11:36:51;;;;;;;1.67;1.60;;;23.20;36.80;;;;;;5027573;28;20937;-79
2022/10/20 11:39:29;;;;;;;2.90;1.67;;;23.40;36.60;;;;;;5028751;28;20524;-76
2022/10/20 11:42:02;;;;;;;2.00;1.70;;;23.20;36.20;;;;;;5027463;28;20441;-75
2022/10/20 11:44:38;;;;;;;2.70;1.70;;;23.10;36.10;;;;;;5025372;28;20482;-77
2022/10/20 11:47:08;;;;;;;1.67;1.57;;;23.20;37.30;;;;;;5030448;28;20445;-78
2022/10/20 11:49:36;;;;;;;2.17;1.57;;;23.40;35.50;;;;;;5031203;28;20471;-78
2022/10/20 11:52:37;;;;;;;2.07;1.70;;;23.10;36.10;;;;;;5027868;28;20514;-81
2022/10/20 11:55:09;;;;;;;2.23;1.50;;;23.10;36.90;;;;;;5028419;28;20445;-76
2022/10/20 11:58:16;;;;;;;1.90;1.80;;;22.50;36.90;;;;;;5030759;28;20509;-76
2022/10/20 12:01:00;;;;;;;1.50;1.40;;;22.20;38.00;;;;;;4996878;28;20522;-77
2022/10/20 12:03:53;;;;;;;1.40;1.37;;;22.00;38.60;;;;;;5029248;28;20443;-76
2022/10/20 12:06:46;;;;;;;2.23;1.77;;;21.90;39.60;;;;;;5023983;28;20535;-75
2022/10/20 12:09:40;;;;;;;1.70;1.60;;;22.00;38.70;;;;;;5030545;28;20486;-75
2022/10/20 12:12:28;;;;;;;3.20;2.10;;;22.50;37.90;;;;;;5023324;28;20459;-75
2022/10/20 12:14:58;;;;;;;2.17;1.60;;;22.50;38.40;;;;;;5017398;28;20426;-76
2022/10/20 12:17:41;;;;;;;1.97;1.40;;;22.40;38.30;;;;;;5028042;28;20530;-76
2022/10/20 12:20:21;;;;;;;1.77;1.50;;;22.60;38.20;;;;;;5027575;28;20434;-83
2022/10/20 12:22:58;;;;;;;1.53;1.43;;;22.90;37.30;;;;;;5025764;28;20984;-77
2022/10/20 12:25:26;;;;;;;1.67;1.43;;;23.20;37.10;;;;;;5029853;28;20445;-76
2022/10/20 12:28:21;;;;;;;1.70;1.60;;;23.20;35.70;;;;;;5028581;28;20463;-79
2022/10/20 12:31:00;;;;;;;4.07;1.50;;;23.00;36.20;;;;;;5027127;28;20434;-78
2022/10/20 12:33:35;;;;;;;1.20;1.20;;;22.70;38.10;;;;;;5030820;28;20912;-77
2022/10/20 12:36:15;;;;;;;1.77;1.73;;;22.80;36.70;;;;;;5030702;28;20919;-76
2022/10/20 12:38:46;;;;;;;1.50;1.40;;;22.90;36.90;;;;;;5025855;28;20467;-77
2022/10/20 12:41:29;;;;;;;1.57;1.50;;;22.80;36.20;;;;;;5029895;28;20438;-77
2022/10/20 12:44:20;;;;;;;1.70;1.50;;;22.70;37.60;;;;;;5029174;28;20438;-77
2022/10/20 12:47:12;;;;;;;1.50;1.40;;;22.50;38.70;;;;;;5024737;28;20435;-80
2022/10/20 12:49:56;;;;;;;1.83;1.33;;;22.40;38.70;;;;;;5016780;28;20502;-77
2022/10/20 12:52:28;;;;;;;1.73;1.60;;;22.30;38.90;;;;;;5030885;28;20888;-78
2022/10/20 12:55:04;;;;;;;1.80;1.60;;;22.30;38.60;;;;;;5031657;28;20493;-77
2022/10/20 12:57:41;;;;;;;1.70;1.67;;;22.30;39.80;;;;;;5027013;28;20401;-78
2022/10/20 13:00:26;;;;;;;1.83;1.40;;;22.60;41.30;;;;;;5034681;28;20385;-77
2022/10/20 13:02:57;;;;;;;1.77;1.53;;;23.00;38.00;;;;;;5034588;28;20414;-77
2022/10/20 13:05:27;;;;;;;2.13;1.60;;;23.10;37.50;;;;;;5033792;28;20525;-77
2022/10/20 13:07:52;;;;;;;1.93;1.57;;;22.90;38.00;;;;;;5034621;28;20418;-77